sensor_id;sensor_type;location;lat;lon;timestamp;P1;durP1;ratioP1;P2;durP2;ratioP2
11535;SDS011;5824;49.336;8.652;2022-09-12T00:00:09;11.13;;;7.53;;
11535;SDS011;5824;49.336;8.652;2022-09-12T00:02:35;9.40;;;7.90;;
11535;SDS011;5824;49.336;8.652;2022-09-12T00:05:01;13.33;;;7.90;;
11535;SDS011;5824;49.336;8.652;2022-09-12T00:07:27;13.37;;;7.40;;
11535;SDS011;5824;49.336;8.652;2022-09-12T00:09:53;10.53;;;7.83;;
11535;SDS011;5824;49.336;8.652;2022-09-12T00:12:18;9.77;;;7.10;;
11535;SDS011;5824;49.336;8.652;2022-09-12T00:14:44;11.10;;;8.27;;
11535;SDS011;5824;49.336;8.652;2022-09-12T00:17:09;9.30;;;7.77;;
11535;SDS011;5824;49.336;8.652;2022-09-12T00:19:36;9.27;;;7.30;;
11535;SDS011;5824;49.336;8.652;2022-09-12T00:22:02;13.77;;;7.73;;
11535;SDS011;5824;49.336;8.652;2022-09-12T00:24:27;9.10;;;7.10;;
11535;SDS011;5824;49.336;8.652;2022-09-12T00:26:53;12.80;;;7.27;;
11535;SDS011;5824;49.336;8.652;2022-09-12T00:29:19;10.43;;;7.60;;
11535;SDS011;5824;49.336;8.652;2022-09-12T00:31:45;17.37;;;8.00;;
11535;SDS011;5824;49.336;8.652;2022-09-12T00:34:11;12.07;;;7.70;;
11535;SDS011;5824;49.336;8.652;2022-09-12T00:36:37;18.33;;;8.20;;
11535;SDS011;5824;49.336;8.652;2022-09-12T00:39:03;12.00;;;7.77;;
11535;SDS011;5824;49.336;8.652;2022-09-12T00:41:30;10.13;;;7.07;;
11535;SDS011;5824;49.336;8.652;2022-09-12T00:44:00;14.33;;;7.87;;
11535;SDS011;5824;49.336;8.652;2022-09-12T00:46:53;13.63;;;7.70;;
11535;SDS011;5824;49.336;8.652;2022-09-12T00:49:26;11.33;;;7.80;;
11535;SDS011;5824;49.336;8.652;2022-09-12T00:51:57;10.30;;;7.60;;
11535;SDS011;5824;49.336;8.652;2022-09-12T00:54:28;10.83;;;7.80;;
11535;SDS011;5824;49.336;8.652;2022-09-12T00:56:59;11.17;;;8.37;;
11535;SDS011;5824;49.336;8.652;2022-09-12T00:59:30;13.03;;;8.40;;
11535;SDS011;5824;49.336;8.652;2022-09-12T01:02:03;15.37;;;7.77;;
11535;SDS011;5824;49.336;8.652;2022-09-12T01:04:29;11.93;;;8.43;;
11535;SDS011;5824;49.336;8.652;2022-09-12T01:06:55;9.40;;;7.23;;
11535;SDS011;5824;49.336;8.652;2022-09-12T01:09:22;12.83;;;8.10;;
11535;SDS011;5824;49.336;8.652;2022-09-12T01:11:49;10.63;;;8.00;;
11535;SDS011;5824;49.336;8.652;2022-09-12T01:14:18;9.87;;;7.13;;
11535;SDS011;5824;49.336;8.652;2022-09-12T01:16:44;12.90;;;7.90;;
11535;SDS011;5824;49.336;8.652;2022-09-12T01:22:29;14.37;;;6.80;;
11535;SDS011;5824;49.336;8.652;2022-09-12T01:30:47;9.03;;;7.40;;
11535;SDS011;5824;49.336;8.652;2022-09-12T01:41:58;12.13;;;7.97;;
11535;SDS011;5824;49.336;8.652;2022-09-12T01:44:53;9.50;;;7.20;;
11535;SDS011;5824;49.336;8.652;2022-09-12T01:47:41;15.37;;;8.27;;
11535;SDS011;5824;49.336;8.652;2022-09-12T01:50:18;9.70;;;7.10;;
11535;SDS011;5824;49.336;8.652;2022-09-12T01:52:49;9.47;;;7.40;;
11535;SDS011;5824;49.336;8.652;2022-09-12T01:57:53;9.63;;;6.80;;
11535;SDS011;5824;49.336;8.652;2022-09-12T02:00:23;9.30;;;7.43;;
11535;SDS011;5824;49.336;8.652;2022-09-12T02:02:56;11.87;;;7.63;;
11535;SDS011;5824;49.336;8.652;2022-09-12T02:08:02;12.37;;;8.27;;
11535;SDS011;5824;49.336;8.652;2022-09-12T02:10:29;13.83;;;8.20;;
11535;SDS011;5824;49.336;8.652;2022-09-12T02:13:03;11.53;;;8.20;;
11535;SDS011;5824;49.336;8.652;2022-09-12T02:15:37;10.67;;;7.70;;
11535;SDS011;5824;49.336;8.652;2022-09-12T02:18:06;9.27;;;7.50;;
11535;SDS011;5824;49.336;8.652;2022-09-12T02:20:36;10.00;;;6.93;;
11535;SDS011;5824;49.336;8.652;2022-09-12T02:23:05;13.10;;;7.90;;
11535;SDS011;5824;49.336;8.652;2022-09-12T02:25:36;9.47;;;6.93;;
11535;SDS011;5824;49.336;8.652;2022-09-12T02:28:08;10.47;;;7.83;;
11535;SDS011;5824;49.336;8.652;2022-09-12T02:30:43;15.17;;;9.07;;
11535;SDS011;5824;49.336;8.652;2022-09-12T02:33:28;14.70;;;7.87;;
11535;SDS011;5824;49.336;8.652;2022-09-12T02:35:57;11.80;;;7.90;;
11535;SDS011;5824;49.336;8.652;2022-09-12T02:41:07;10.33;;;7.70;;
11535;SDS011;5824;49.336;8.652;2022-09-12T02:43:33;10.53;;;7.50;;
11535;SDS011;5824;49.336;8.652;2022-09-12T02:45:58;13.37;;;7.97;;
11535;SDS011;5824;49.336;8.652;2022-09-12T02:48:26;13.20;;;7.60;;
11535;SDS011;5824;49.336;8.652;2022-09-12T02:50:55;11.20;;;7.30;;
11535;SDS011;5824;49.336;8.652;2022-09-12T02:53:21;13.17;;;8.30;;
11535;SDS011;5824;49.336;8.652;2022-09-12T02:55:47;15.63;;;7.90;;
11535;SDS011;5824;49.336;8.652;2022-09-12T02:58:15;10.20;;;7.77;;
11535;SDS011;5824;49.336;8.652;2022-09-12T03:00:53;10.67;;;7.97;;
11535;SDS011;5824;49.336;8.652;2022-09-12T03:03:31;10.30;;;7.20;;
11535;SDS011;5824;49.336;8.652;2022-09-12T03:06:09;10.93;;;8.00;;
11535;SDS011;5824;49.336;8.652;2022-09-12T03:08:46;11.07;;;7.83;;
11535;SDS011;5824;49.336;8.652;2022-09-12T03:11:24;12.13;;;8.07;;
11535;SDS011;5824;49.336;8.652;2022-09-12T03:17:00;12.63;;;7.60;;
11535;SDS011;5824;49.336;8.652;2022-09-12T03:19:53;12.83;;;7.43;;
11535;SDS011;5824;49.336;8.652;2022-09-12T03:25:16;11.17;;;7.30;;
11535;SDS011;5824;49.336;8.652;2022-09-12T03:27:50;13.00;;;7.83;;
11535;SDS011;5824;49.336;8.652;2022-09-12T03:30:20;15.13;;;7.37;;
11535;SDS011;5824;49.336;8.652;2022-09-12T03:32:47;11.20;;;7.30;;
11535;SDS011;5824;49.336;8.652;2022-09-12T03:35:15;14.50;;;7.70;;
11535;SDS011;5824;49.336;8.652;2022-09-12T03:37:42;16.03;;;8.10;;
11535;SDS011;5824;49.336;8.652;2022-09-12T03:40:08;9.43;;;7.50;;
11535;SDS011;5824;49.336;8.652;2022-09-12T03:42:35;13.73;;;7.80;;
11535;SDS011;5824;49.336;8.652;2022-09-12T03:45:01;12.07;;;7.20;;
11535;SDS011;5824;49.336;8.652;2022-09-12T03:47:27;11.53;;;7.50;;
11535;SDS011;5824;49.336;8.652;2022-09-12T03:49:53;10.80;;;7.67;;
11535;SDS011;5824;49.336;8.652;2022-09-12T03:52:18;11.20;;;7.87;;
11535;SDS011;5824;49.336;8.652;2022-09-12T03:54:44;8.77;;;7.17;;
11535;SDS011;5824;49.336;8.652;2022-09-12T03:57:10;13.40;;;7.20;;
11535;SDS011;5824;49.336;8.652;2022-09-12T03:59:35;11.27;;;7.90;;
11535;SDS011;5824;49.336;8.652;2022-09-12T04:02:01;12.30;;;8.03;;
11535;SDS011;5824;49.336;8.652;2022-09-12T04:04:28;13.07;;;8.10;;
11535;SDS011;5824;49.336;8.652;2022-09-12T04:06:53;12.00;;;7.80;;
11535;SDS011;5824;49.336;8.652;2022-09-12T04:09:19;11.33;;;8.53;;
11535;SDS011;5824;49.336;8.652;2022-09-12T04:11:45;10.77;;;7.73;;
11535;SDS011;5824;49.336;8.652;2022-09-12T04:14:10;9.27;;;7.67;;
11535;SDS011;5824;49.336;8.652;2022-09-12T04:16:36;14.47;;;8.00;;
11535;SDS011;5824;49.336;8.652;2022-09-12T04:19:01;10.00;;;6.97;;
11535;SDS011;5824;49.336;8.652;2022-09-12T04:21:27;12.13;;;7.93;;
11535;SDS011;5824;49.336;8.652;2022-09-12T04:23:52;15.13;;;8.20;;
11535;SDS011;5824;49.336;8.652;2022-09-12T04:26:20;12.57;;;8.30;;
11535;SDS011;5824;49.336;8.652;2022-09-12T04:28:46;9.40;;;7.40;;
11535;SDS011;5824;49.336;8.652;2022-09-12T04:31:16;15.30;;;7.70;;
11535;SDS011;5824;49.336;8.652;2022-09-12T04:33:42;11.57;;;7.20;;
11535;SDS011;5824;49.336;8.652;2022-09-12T04:36:10;9.40;;;7.33;;
11535;SDS011;5824;49.336;8.652;2022-09-12T04:38:38;15.57;;;8.00;;
11535;SDS011;5824;49.336;8.652;2022-09-12T04:43:43;10.93;;;7.53;;
11535;SDS011;5824;49.336;8.652;2022-09-12T04:46:13;15.40;;;8.97;;
11535;SDS011;5824;49.336;8.652;2022-09-12T04:48:40;13.83;;;8.47;;
11535;SDS011;5824;49.336;8.652;2022-09-12T04:53:33;12.63;;;8.73;;
11535;SDS011;5824;49.336;8.652;2022-09-12T04:56:06;12.43;;;7.97;;
11535;SDS011;5824;49.336;8.652;2022-09-12T04:58:33;13.40;;;8.27;;
11535;SDS011;5824;49.336;8.652;2022-09-12T05:01:06;13.60;;;8.20;;
11535;SDS011;5824;49.336;8.652;2022-09-12T05:03:33;12.70;;;7.57;;
11535;SDS011;5824;49.336;8.652;2022-09-12T05:06:01;17.27;;;8.30;;
11535;SDS011;5824;49.336;8.652;2022-09-12T05:08:27;12.77;;;8.17;;
11535;SDS011;5824;49.336;8.652;2022-09-12T05:10:53;10.43;;;7.70;;
11535;SDS011;5824;49.336;8.652;2022-09-12T05:13:19;12.27;;;7.27;;
11535;SDS011;5824;49.336;8.652;2022-09-12T05:15:52;12.93;;;8.20;;
11535;SDS011;5824;49.336;8.652;2022-09-12T05:18:19;14.70;;;8.37;;
11535;SDS011;5824;49.336;8.652;2022-09-12T05:20:45;11.37;;;7.40;;
11535;SDS011;5824;49.336;8.652;2022-09-12T05:23:10;9.77;;;8.03;;
11535;SDS011;5824;49.336;8.652;2022-09-12T05:25:36;9.80;;;7.50;;
11535;SDS011;5824;49.336;8.652;2022-09-12T05:28:02;11.00;;;7.40;;
11535;SDS011;5824;49.336;8.652;2022-09-12T05:30:27;13.43;;;8.03;;
11535;SDS011;5824;49.336;8.652;2022-09-12T05:32:53;11.40;;;7.97;;
11535;SDS011;5824;49.336;8.652;2022-09-12T05:35:18;13.53;;;7.73;;
11535;SDS011;5824;49.336;8.652;2022-09-12T05:37:44;11.47;;;7.80;;
11535;SDS011;5824;49.336;8.652;2022-09-12T05:40:09;19.33;;;9.00;;
11535;SDS011;5824;49.336;8.652;2022-09-12T05:42:35;13.47;;;9.23;;
11535;SDS011;5824;49.336;8.652;2022-09-12T05:45:00;11.57;;;8.17;;
11535;SDS011;5824;49.336;8.652;2022-09-12T05:47:26;11.00;;;8.73;;
11535;SDS011;5824;49.336;8.652;2022-09-12T05:49:51;16.63;;;9.30;;
11535;SDS011;5824;49.336;8.652;2022-09-12T05:52:17;13.13;;;9.23;;
11535;SDS011;5824;49.336;8.652;2022-09-12T05:54:44;15.90;;;9.10;;
11535;SDS011;5824;49.336;8.652;2022-09-12T05:57:10;13.40;;;10.97;;
11535;SDS011;5824;49.336;8.652;2022-09-12T05:59:36;21.00;;;9.43;;
11535;SDS011;5824;49.336;8.652;2022-09-12T06:02:01;15.30;;;10.80;;
11535;SDS011;5824;49.336;8.652;2022-09-12T06:04:27;14.27;;;10.30;;
11535;SDS011;5824;49.336;8.652;2022-09-12T06:06:52;13.43;;;9.60;;
11535;SDS011;5824;49.336;8.652;2022-09-12T06:09:18;16.10;;;11.10;;
11535;SDS011;5824;49.336;8.652;2022-09-12T06:11:44;15.63;;;11.47;;
11535;SDS011;5824;49.336;8.652;2022-09-12T06:14:11;17.30;;;11.20;;
11535;SDS011;5824;49.336;8.652;2022-09-12T06:16:38;21.43;;;12.70;;
11535;SDS011;5824;49.336;8.652;2022-09-12T06:19:05;16.73;;;12.23;;
11535;SDS011;5824;49.336;8.652;2022-09-12T06:21:32;14.03;;;10.40;;
11535;SDS011;5824;49.336;8.652;2022-09-12T06:23:59;12.87;;;10.10;;
11535;SDS011;5824;49.336;8.652;2022-09-12T06:26:26;11.03;;;8.87;;
11535;SDS011;5824;49.336;8.652;2022-09-12T06:28:54;12.90;;;9.73;;
11535;SDS011;5824;49.336;8.652;2022-09-12T06:31:22;13.10;;;10.57;;
11535;SDS011;5824;49.336;8.652;2022-09-12T06:33:50;15.40;;;11.27;;
11535;SDS011;5824;49.336;8.652;2022-09-12T06:36:17;11.20;;;9.73;;
11535;SDS011;5824;49.336;8.652;2022-09-12T06:38:45;14.33;;;9.50;;
11535;SDS011;5824;49.336;8.652;2022-09-12T06:41:11;13.80;;;9.03;;
11535;SDS011;5824;49.336;8.652;2022-09-12T06:43:37;10.60;;;9.10;;
11535;SDS011;5824;49.336;8.652;2022-09-12T06:46:04;11.63;;;9.30;;
11535;SDS011;5824;49.336;8.652;2022-09-12T06:48:30;13.37;;;10.30;;
11535;SDS011;5824;49.336;8.652;2022-09-12T06:51:03;12.03;;;9.47;;
11535;SDS011;5824;49.336;8.652;2022-09-12T06:53:37;14.73;;;9.47;;
11535;SDS011;5824;49.336;8.652;2022-09-12T06:56:25;13.80;;;9.90;;
11535;SDS011;5824;49.336;8.652;2022-09-12T06:58:51;15.37;;;9.67;;
11535;SDS011;5824;49.336;8.652;2022-09-12T07:01:22;13.73;;;10.27;;
11535;SDS011;5824;49.336;8.652;2022-09-12T07:03:49;11.43;;;9.87;;
11535;SDS011;5824;49.336;8.652;2022-09-12T07:06:17;13.30;;;10.13;;
11535;SDS011;5824;49.336;8.652;2022-09-12T07:08:44;13.10;;;9.40;;
11535;SDS011;5824;49.336;8.652;2022-09-12T07:13:41;14.23;;;9.93;;
11535;SDS011;5824;49.336;8.652;2022-09-12T07:16:09;11.70;;;8.70;;
11535;SDS011;5824;49.336;8.652;2022-09-12T07:18:35;11.20;;;8.20;;
11535;SDS011;5824;49.336;8.652;2022-09-12T07:21:03;10.87;;;8.60;;
11535;SDS011;5824;49.336;8.652;2022-09-12T07:23:30;10.33;;;8.70;;
11535;SDS011;5824;49.336;8.652;2022-09-12T07:25:56;12.60;;;8.20;;
11535;SDS011;5824;49.336;8.652;2022-09-12T07:28:23;10.80;;;8.10;;
11535;SDS011;5824;49.336;8.652;2022-09-12T07:30:50;9.50;;;8.50;;
11535;SDS011;5824;49.336;8.652;2022-09-12T07:33:18;10.73;;;7.80;;
11535;SDS011;5824;49.336;8.652;2022-09-12T07:36:03;7.93;;;7.13;;
11535;SDS011;5824;49.336;8.652;2022-09-12T07:38:30;8.90;;;8.00;;
11535;SDS011;5824;49.336;8.652;2022-09-12T07:40:55;8.47;;;7.30;;
11535;SDS011;5824;49.336;8.652;2022-09-12T07:43:22;8.97;;;8.07;;
11535;SDS011;5824;49.336;8.652;2022-09-12T07:45:47;8.93;;;7.67;;
11535;SDS011;5824;49.336;8.652;2022-09-12T07:48:13;8.87;;;7.87;;
11535;SDS011;5824;49.336;8.652;2022-09-12T07:50:38;9.83;;;7.80;;
11535;SDS011;5824;49.336;8.652;2022-09-12T07:53:04;9.13;;;7.57;;
11535;SDS011;5824;49.336;8.652;2022-09-12T07:55:30;9.60;;;7.73;;
11535;SDS011;5824;49.336;8.652;2022-09-12T07:57:56;7.47;;;6.77;;
11535;SDS011;5824;49.336;8.652;2022-09-12T08:00:22;8.50;;;7.60;;
11535;SDS011;5824;49.336;8.652;2022-09-12T08:02:51;7.93;;;7.10;;
11535;SDS011;5824;49.336;8.652;2022-09-12T08:05:17;10.73;;;6.97;;
11535;SDS011;5824;49.336;8.652;2022-09-12T08:07:43;8.00;;;7.18;;
11535;SDS011;5824;49.336;8.652;2022-09-12T08:10:09;7.80;;;7.00;;
11535;SDS011;5824;49.336;8.652;2022-09-12T08:12:34;7.32;;;6.63;;
11535;SDS011;5824;49.336;8.652;2022-09-12T08:15:00;7.15;;;5.93;;
11535;SDS011;5824;49.336;8.652;2022-09-12T08:17:26;8.18;;;6.40;;
11535;SDS011;5824;49.336;8.652;2022-09-12T08:19:53;7.93;;;6.68;;
11535;SDS011;5824;49.336;8.652;2022-09-12T08:22:19;7.10;;;5.97;;
11535;SDS011;5824;49.336;8.652;2022-09-12T08:24:45;7.00;;;6.32;;
11535;SDS011;5824;49.336;8.652;2022-09-12T08:27:11;7.20;;;6.50;;
11535;SDS011;5824;49.336;8.652;2022-09-12T08:29:38;6.93;;;6.20;;
11535;SDS011;5824;49.336;8.652;2022-09-12T08:32:04;7.10;;;6.40;;
11535;SDS011;5824;49.336;8.652;2022-09-12T08:34:30;7.05;;;6.35;;
11535;SDS011;5824;49.336;8.652;2022-09-12T08:36:55;8.30;;;6.38;;
11535;SDS011;5824;49.336;8.652;2022-09-12T08:39:21;6.28;;;5.43;;
11535;SDS011;5824;49.336;8.652;2022-09-12T08:41:53;8.10;;;5.22;;
11535;SDS011;5824;49.336;8.652;2022-09-12T08:47:31;9.80;;;5.93;;
11535;SDS011;5824;49.336;8.652;2022-09-12T08:50:09;6.78;;;6.07;;
11535;SDS011;5824;49.336;8.652;2022-09-12T08:55:57;6.82;;;5.93;;
11535;SDS011;5824;49.336;8.652;2022-09-12T08:58:22;6.85;;;6.10;;
11535;SDS011;5824;49.336;8.652;2022-09-12T09:15:05;6.40;;;5.50;;
11535;SDS011;5824;49.336;8.652;2022-09-12T09:17:48;8.43;;;4.60;;
11535;SDS011;5824;49.336;8.652;2022-09-12T09:20:33;5.95;;;5.22;;
11535;SDS011;5824;49.336;8.652;2022-09-12T09:23:13;6.32;;;5.63;;
11535;SDS011;5824;49.336;8.652;2022-09-12T09:26:00;7.78;;;5.20;;
11535;SDS011;5824;49.336;8.652;2022-09-12T09:31:11;9.43;;;4.88;;
11535;SDS011;5824;49.336;8.652;2022-09-12T09:33:39;9.18;;;4.93;;
11535;SDS011;5824;49.336;8.652;2022-09-12T09:36:15;6.85;;;5.05;;
11535;SDS011;5824;49.336;8.652;2022-09-12T09:41:48;6.20;;;5.13;;
11535;SDS011;5824;49.336;8.652;2022-09-12T09:44:33;7.43;;;4.82;;
11535;SDS011;5824;49.336;8.652;2022-09-12T09:46:58;6.40;;;5.38;;
11535;SDS011;5824;49.336;8.652;2022-09-12T09:49:30;5.90;;;5.30;;
11535;SDS011;5824;49.336;8.652;2022-09-12T09:51:58;9.63;;;5.28;;
11535;SDS011;5824;49.336;8.652;2022-09-12T09:54:45;6.25;;;4.70;;
11535;SDS011;5824;49.336;8.652;2022-09-12T10:05:52;6.55;;;5.20;;
11535;SDS011;5824;49.336;8.652;2022-09-12T10:14:00;5.50;;;4.97;;
11535;SDS011;5824;49.336;8.652;2022-09-12T10:16:26;7.13;;;5.30;;
11535;SDS011;5824;49.336;8.652;2022-09-12T10:18:57;6.40;;;4.95;;
11535;SDS011;5824;49.336;8.652;2022-09-12T10:26:53;6.00;;;5.20;;
11535;SDS011;5824;49.336;8.652;2022-09-12T10:29:28;9.77;;;5.13;;
11535;SDS011;5824;49.336;8.652;2022-09-12T10:31:57;6.53;;;5.00;;
11535;SDS011;5824;49.336;8.652;2022-09-12T10:34:28;4.80;;;4.15;;
11535;SDS011;5824;49.336;8.652;2022-09-12T10:37:08;5.18;;;4.68;;
11535;SDS011;5824;49.336;8.652;2022-09-12T10:39:49;5.55;;;4.97;;
11535;SDS011;5824;49.336;8.652;2022-09-12T10:42:40;4.93;;;4.40;;
11535;SDS011;5824;49.336;8.652;2022-09-12T10:45:16;5.57;;;4.57;;
11535;SDS011;5824;49.336;8.652;2022-09-12T10:47:44;5.38;;;4.53;;
11535;SDS011;5824;49.336;8.652;2022-09-12T11:03:52;5.78;;;3.50;;
11535;SDS011;5824;49.336;8.652;2022-09-12T11:06:57;4.28;;;3.88;;
11535;SDS011;5824;49.336;8.652;2022-09-12T11:09:41;4.90;;;4.25;;
11535;SDS011;5824;49.336;8.652;2022-09-12T11:12:28;5.03;;;3.47;;
11535;SDS011;5824;49.336;8.652;2022-09-12T11:18:08;4.50;;;3.10;;
11535;SDS011;5824;49.336;8.652;2022-09-12T11:26:11;7.05;;;3.45;;
11535;SDS011;5824;49.336;8.652;2022-09-12T11:31:48;3.65;;;3.08;;
11535;SDS011;5824;49.336;8.652;2022-09-12T11:34:24;4.82;;;3.15;;
11535;SDS011;5824;49.336;8.652;2022-09-12T11:37:04;7.43;;;3.30;;
11535;SDS011;5824;49.336;8.652;2022-09-12T11:39:47;8.43;;;3.20;;
11535;SDS011;5824;49.336;8.652;2022-09-12T11:42:17;3.72;;;3.20;;
11535;SDS011;5824;49.336;8.652;2022-09-12T11:44:55;7.95;;;3.40;;
11535;SDS011;5824;49.336;8.652;2022-09-12T11:47:28;3.97;;;2.95;;
11535;SDS011;5824;49.336;8.652;2022-09-12T11:49:55;3.80;;;2.90;;
11535;SDS011;5824;49.336;8.652;2022-09-12T11:52:24;4.35;;;3.10;;
11535;SDS011;5824;49.336;8.652;2022-09-12T11:55:05;4.85;;;3.03;;
11535;SDS011;5824;49.336;8.652;2022-09-12T12:00:20;3.50;;;3.10;;
11535;SDS011;5824;49.336;8.652;2022-09-12T12:05:58;4.32;;;3.40;;
11535;SDS011;5824;49.336;8.652;2022-09-12T12:08:33;4.90;;;3.22;;
11535;SDS011;5824;49.336;8.652;2022-09-12T12:11:04;3.42;;;2.70;;
11535;SDS011;5824;49.336;8.652;2022-09-12T12:13:31;3.38;;;2.85;;
11535;SDS011;5824;49.336;8.652;2022-09-12T12:16:13;4.70;;;2.60;;
11535;SDS011;5824;49.336;8.652;2022-09-12T12:18:45;7.05;;;3.05;;
11535;SDS011;5824;49.336;8.652;2022-09-12T12:29:07;3.75;;;2.80;;
11535;SDS011;5824;49.336;8.652;2022-09-12T12:34:44;3.97;;;2.75;;
11535;SDS011;5824;49.336;8.652;2022-09-12T12:40:06;8.38;;;2.85;;
11535;SDS011;5824;49.336;8.652;2022-09-12T12:44:59;5.85;;;2.80;;
11535;SDS011;5824;49.336;8.652;2022-09-12T12:47:42;3.50;;;2.50;;
11535;SDS011;5824;49.336;8.652;2022-09-12T12:55:13;4.63;;;2.70;;
11535;SDS011;5824;49.336;8.652;2022-09-12T12:57:48;4.63;;;2.67;;
11535;SDS011;5824;49.336;8.652;2022-09-12T13:05:37;3.88;;;2.70;;
11535;SDS011;5824;49.336;8.652;2022-09-12T13:08:37;7.18;;;2.50;;
11535;SDS011;5824;49.336;8.652;2022-09-12T13:10:58;4.85;;;2.80;;
11535;SDS011;5824;49.336;8.652;2022-09-12T13:15:56;3.63;;;2.83;;
11535;SDS011;5824;49.336;8.652;2022-09-12T13:18:22;2.78;;;2.47;;
11535;SDS011;5824;49.336;8.652;2022-09-12T13:23:28;3.67;;;2.80;;
11535;SDS011;5824;49.336;8.652;2022-09-12T13:25:57;3.20;;;2.58;;
11535;SDS011;5824;49.336;8.652;2022-09-12T13:28:24;9.18;;;2.42;;
11535;SDS011;5824;49.336;8.652;2022-09-12T13:31:02;3.95;;;2.63;;
11535;SDS011;5824;49.336;8.652;2022-09-12T13:33:36;4.07;;;2.88;;
11535;SDS011;5824;49.336;8.652;2022-09-12T13:36:09;3.28;;;2.60;;
11535;SDS011;5824;49.336;8.652;2022-09-12T13:44:08;3.30;;;2.55;;
11535;SDS011;5824;49.336;8.652;2022-09-12T13:46:37;4.22;;;2.60;;
11535;SDS011;5824;49.336;8.652;2022-09-12T13:49:09;3.78;;;2.70;;
11535;SDS011;5824;49.336;8.652;2022-09-12T13:52:05;2.83;;;2.50;;
11535;SDS011;5824;49.336;8.652;2022-09-12T13:54:34;3.42;;;2.75;;
11535;SDS011;5824;49.336;8.652;2022-09-12T13:57:03;3.83;;;2.83;;
11535;SDS011;5824;49.336;8.652;2022-09-12T13:59:38;4.15;;;2.80;;
11535;SDS011;5824;49.336;8.652;2022-09-12T14:02:18;4.18;;;3.20;;
11535;SDS011;5824;49.336;8.652;2022-09-12T14:04:48;3.78;;;2.60;;
11535;SDS011;5824;49.336;8.652;2022-09-12T14:07:38;3.05;;;2.60;;
11535;SDS011;5824;49.336;8.652;2022-09-12T14:10:40;3.00;;;2.50;;
11535;SDS011;5824;49.336;8.652;2022-09-12T14:13:10;4.53;;;2.60;;
11535;SDS011;5824;49.336;8.652;2022-09-12T14:15:50;3.10;;;2.40;;
11535;SDS011;5824;49.336;8.652;2022-09-12T14:18:50;4.40;;;3.17;;
11535;SDS011;5824;49.336;8.652;2022-09-12T14:21:14;5.32;;;2.50;;
11535;SDS011;5824;49.336;8.652;2022-09-12T14:23:50;6.47;;;2.65;;
11535;SDS011;5824;49.336;8.652;2022-09-12T14:26:16;2.92;;;2.35;;
11535;SDS011;5824;49.336;8.652;2022-09-12T14:28:42;3.03;;;2.40;;
11535;SDS011;5824;49.336;8.652;2022-09-12T14:33:47;7.13;;;2.70;;
11535;SDS011;5824;49.336;8.652;2022-09-12T14:38:57;3.83;;;2.58;;
11535;SDS011;5824;49.336;8.652;2022-09-12T14:41:27;4.32;;;2.70;;
11535;SDS011;5824;49.336;8.652;2022-09-12T14:43:57;4.22;;;2.60;;
11535;SDS011;5824;49.336;8.652;2022-09-12T14:46:26;3.53;;;2.50;;
11535;SDS011;5824;49.336;8.652;2022-09-12T14:48:59;4.78;;;2.60;;
11535;SDS011;5824;49.336;8.652;2022-09-12T14:51:35;3.40;;;2.75;;
11535;SDS011;5824;49.336;8.652;2022-09-12T14:54:03;4.85;;;2.42;;
11535;SDS011;5824;49.336;8.652;2022-09-12T15:04:45;3.30;;;2.60;;
11535;SDS011;5824;49.336;8.652;2022-09-12T15:10:13;3.67;;;2.30;;
11535;SDS011;5824;49.336;8.652;2022-09-12T15:12:48;3.05;;;2.40;;
11535;SDS011;5824;49.336;8.652;2022-09-12T15:15:18;4.30;;;2.25;;
11535;SDS011;5824;49.336;8.652;2022-09-12T15:17:44;3.97;;;2.90;;
11535;SDS011;5824;49.336;8.652;2022-09-12T15:20:11;3.30;;;2.53;;
11535;SDS011;5824;49.336;8.652;2022-09-12T15:22:37;3.10;;;2.40;;
11535;SDS011;5824;49.336;8.652;2022-09-12T15:25:05;2.80;;;2.20;;
11535;SDS011;5824;49.336;8.652;2022-09-12T15:27:31;8.85;;;2.40;;
11535;SDS011;5824;49.336;8.652;2022-09-12T15:29:57;5.07;;;2.25;;
11535;SDS011;5824;49.336;8.652;2022-09-12T15:32:23;2.97;;;2.47;;
11535;SDS011;5824;49.336;8.652;2022-09-12T15:34:50;3.33;;;2.47;;
11535;SDS011;5824;49.336;8.652;2022-09-12T15:37:16;5.90;;;2.55;;
11535;SDS011;5824;49.336;8.652;2022-09-12T15:39:46;3.60;;;2.30;;
11535;SDS011;5824;49.336;8.652;2022-09-12T15:42:13;3.00;;;2.47;;
11535;SDS011;5824;49.336;8.652;2022-09-12T15:44:40;5.43;;;2.90;;
11535;SDS011;5824;49.336;8.652;2022-09-12T15:47:05;3.60;;;2.10;;
11535;SDS011;5824;49.336;8.652;2022-09-12T15:49:33;3.25;;;2.35;;
11535;SDS011;5824;49.336;8.652;2022-09-12T15:51:59;3.15;;;2.35;;
11535;SDS011;5824;49.336;8.652;2022-09-12T15:54:25;3.88;;;2.42;;
11535;SDS011;5824;49.336;8.652;2022-09-12T15:56:50;4.05;;;2.67;;
11535;SDS011;5824;49.336;8.652;2022-09-12T15:59:16;5.90;;;2.88;;
11535;SDS011;5824;49.336;8.652;2022-09-12T16:01:41;4.22;;;2.67;;
11535;SDS011;5824;49.336;8.652;2022-09-12T16:04:20;5.00;;;2.80;;
11535;SDS011;5824;49.336;8.652;2022-09-12T16:06:47;4.20;;;2.90;;
11535;SDS011;5824;49.336;8.652;2022-09-12T16:09:13;4.72;;;2.78;;
11535;SDS011;5824;49.336;8.652;2022-09-12T16:11:39;3.72;;;2.92;;
11535;SDS011;5824;49.336;8.652;2022-09-12T16:14:05;4.43;;;2.90;;
11535;SDS011;5824;49.336;8.652;2022-09-12T16:16:31;4.45;;;2.70;;
11535;SDS011;5824;49.336;8.652;2022-09-12T16:18:56;3.50;;;3.03;;
11535;SDS011;5824;49.336;8.652;2022-09-12T16:21:22;4.45;;;2.80;;
11535;SDS011;5824;49.336;8.652;2022-09-12T16:23:49;3.38;;;2.75;;
11535;SDS011;5824;49.336;8.652;2022-09-12T16:26:15;5.80;;;3.10;;
11535;SDS011;5824;49.336;8.652;2022-09-12T16:28:41;4.90;;;3.00;;
11535;SDS011;5824;49.336;8.652;2022-09-12T16:31:07;8.90;;;2.97;;
11535;SDS011;5824;49.336;8.652;2022-09-12T16:33:35;6.00;;;3.20;;
11535;SDS011;5824;49.336;8.652;2022-09-12T16:36:02;3.53;;;3.00;;
11535;SDS011;5824;49.336;8.652;2022-09-12T16:38:30;4.70;;;3.07;;
11535;SDS011;5824;49.336;8.652;2022-09-12T16:41:03;3.50;;;2.70;;
11535;SDS011;5824;49.336;8.652;2022-09-12T16:43:30;8.13;;;3.57;;
11535;SDS011;5824;49.336;8.652;2022-09-12T16:46:04;5.90;;;3.27;;
11535;SDS011;5824;49.336;8.652;2022-09-12T16:48:32;3.50;;;3.00;;
11535;SDS011;5824;49.336;8.652;2022-09-12T16:50:58;4.70;;;3.23;;
11535;SDS011;5824;49.336;8.652;2022-09-12T16:53:32;7.30;;;3.10;;
11535;SDS011;5824;49.336;8.652;2022-09-12T16:55:59;5.37;;;3.40;;
11535;SDS011;5824;49.336;8.652;2022-09-12T16:58:24;6.30;;;3.50;;
11535;SDS011;5824;49.336;8.652;2022-09-12T17:01:00;6.10;;;3.17;;
11535;SDS011;5824;49.336;8.652;2022-09-12T17:03:27;4.97;;;3.20;;
11535;SDS011;5824;49.336;8.652;2022-09-12T17:05:57;4.57;;;3.57;;
11535;SDS011;5824;49.336;8.652;2022-09-12T17:08:29;3.60;;;3.10;;
11535;SDS011;5824;49.336;8.652;2022-09-12T17:11:00;4.33;;;3.50;;
11535;SDS011;5824;49.336;8.652;2022-09-12T17:13:27;5.30;;;3.57;;
11535;SDS011;5824;49.336;8.652;2022-09-12T17:15:52;3.70;;;3.10;;
11535;SDS011;5824;49.336;8.652;2022-09-12T17:18:18;4.23;;;3.50;;
11535;SDS011;5824;49.336;8.652;2022-09-12T17:20:43;4.97;;;3.60;;
11535;SDS011;5824;49.336;8.652;2022-09-12T17:23:09;4.20;;;3.43;;
11535;SDS011;5824;49.336;8.652;2022-09-12T17:25:35;4.67;;;3.40;;
11535;SDS011;5824;49.336;8.652;2022-09-12T17:28:00;4.40;;;3.50;;
11535;SDS011;5824;49.336;8.652;2022-09-12T17:30:29;5.03;;;3.60;;
11535;SDS011;5824;49.336;8.652;2022-09-12T17:32:54;6.17;;;3.97;;
11535;SDS011;5824;49.336;8.652;2022-09-12T17:35:20;6.17;;;3.87;;
11535;SDS011;5824;49.336;8.652;2022-09-12T17:37:45;7.17;;;3.87;;
11535;SDS011;5824;49.336;8.652;2022-09-12T17:40:11;5.70;;;3.80;;
11535;SDS011;5824;49.336;8.652;2022-09-12T17:42:37;9.30;;;5.00;;
11535;SDS011;5824;49.336;8.652;2022-09-12T17:45:04;9.93;;;7.10;;
11535;SDS011;5824;49.336;8.652;2022-09-12T17:47:30;18.90;;;11.30;;
11535;SDS011;5824;49.336;8.652;2022-09-12T17:49:56;9.60;;;7.73;;
11535;SDS011;5824;49.336;8.652;2022-09-12T17:52:24;8.03;;;6.73;;
11535;SDS011;5824;49.336;8.652;2022-09-12T17:54:49;9.70;;;6.00;;
11535;SDS011;5824;49.336;8.652;2022-09-12T17:57:15;8.83;;;6.20;;
11535;SDS011;5824;49.336;8.652;2022-09-12T17:59:40;11.63;;;6.60;;